sensor_id;sensor_type;location;lat;lon;timestamp;pressure;altitude;pressure_sealevel;temperature;humidity
64876;BME280;51369;49.862;9.908;2024-01-27T00:01:15;99962.34;;;5.69;70.30
64876;BME280;51369;49.862;9.908;2024-01-27T00:03:41;99964.13;;;5.63;70.37
64876;BME280;51369;49.862;9.908;2024-01-27T00:06:06;99960.53;;;5.57;70.07
64876;BME280;51369;49.862;9.908;2024-01-27T00:08:31;99970.34;;;5.54;70.39
64876;BME280;51369;49.862;9.908;2024-01-27T00:10:57;99972.13;;;5.49;70.42
64876;BME280;51369;49.862;9.908;2024-01-27T00:13:22;99973.00;;;5.42;70.91
64876;BME280;51369;49.862;9.908;2024-01-27T00:15:47;99974.78;;;5.38;71.08
64876;BME280;51369;49.862;9.908;2024-01-27T00:18:15;99977.44;;;5.35;71.01
64876;BME280;51369;49.862;9.908;2024-01-27T00:20:41;99980.09;;;5.32;71.13
64876;BME280;51369;49.862;9.908;2024-01-27T00:23:07;99978.31;;;5.28;71.23
64876;BME280;51369;49.862;9.908;2024-01-27T00:25:33;99989.00;;;5.22;70.93
64876;BME280;51369;49.862;9.908;2024-01-27T00:27:59;99989.88;;;5.16;71.39
64876;BME280;51369;49.862;9.908;2024-01-27T00:30:24;99977.34;;;5.09;70.84
64876;BME280;51369;49.862;9.908;2024-01-27T00:32:50;99972.88;;;5.02;71.43
64876;BME280;51369;49.862;9.908;2024-01-27T00:35:16;99980.84;;;4.96;71.60
64876;BME280;51369;49.862;9.908;2024-01-27T00:37:42;99977.25;;;4.91;71.79
64876;BME280;51369;49.862;9.908;2024-01-27T00:40:10;99974.56;;;4.86;71.45
64876;BME280;51369;49.862;9.908;2024-01-27T00:42:37;99972.75;;;4.82;71.90
64876;BME280;51369;49.862;9.908;2024-01-27T00:45:04;99977.19;;;4.79;71.32
64876;BME280;51369;49.862;9.908;2024-01-27T00:47:30;99965.56;;;4.75;71.49
64876;BME280;51369;49.862;9.908;2024-01-27T00:49:55;99973.59;;;4.75;71.74
64876;BME280;51369;49.862;9.908;2024-01-27T00:52:20;99970.94;;;4.75;71.66
64876;BME280;51369;49.862;9.908;2024-01-27T00:54:46;99975.38;;;4.75;71.89
64876;BME280;51369;49.862;9.908;2024-01-27T00:57:11;99982.53;;;4.77;72.26
64876;BME280;51369;49.862;9.908;2024-01-27T00:59:37;99985.22;;;4.77;72.15
64876;BME280;51369;49.862;9.908;2024-01-27T01:02:04;99986.09;;;4.78;71.23
64876;BME280;51369;49.862;9.908;2024-01-27T01:04:30;99987.88;;;4.76;71.50
64876;BME280;51369;49.862;9.908;2024-01-27T01:06:55;99990.53;;;4.73;71.62
64876;BME280;51369;49.862;9.908;2024-01-27T01:09:21;100006.56;;;4.70;72.03
64876;BME280;51369;49.862;9.908;2024-01-27T01:11:47;100008.34;;;4.68;71.56
64876;BME280;51369;49.862;9.908;2024-01-27T01:14:12;100004.75;;;4.66;71.40
64876;BME280;51369;49.862;9.908;2024-01-27T01:16:39;100014.53;;;4.64;71.39
64876;BME280;51369;49.862;9.908;2024-01-27T01:19:05;100020.78;;;4.63;71.75
64876;BME280;51369;49.862;9.908;2024-01-27T01:21:30;100019.88;;;4.61;71.32
64876;BME280;51369;49.862;9.908;2024-01-27T01:23:56;100025.19;;;4.57;71.44
64876;BME280;51369;49.862;9.908;2024-01-27T01:26:21;100028.75;;;4.55;71.59
64876;BME280;51369;49.862;9.908;2024-01-27T01:28:47;100031.41;;;4.52;71.92
64876;BME280;51369;49.862;9.908;2024-01-27T01:31:12;100028.72;;;4.50;71.30
64876;BME280;51369;49.862;9.908;2024-01-27T01:33:38;100034.94;;;4.48;71.64
64876;BME280;51369;49.862;9.908;2024-01-27T01:36:03;100037.59;;;4.46;72.27
64876;BME280;51369;49.862;9.908;2024-01-27T01:38:29;100040.25;;;4.43;71.70
64876;BME280;51369;49.862;9.908;2024-01-27T01:40:54;100039.34;;;4.41;71.46
64876;BME280;51369;49.862;9.908;2024-01-27T01:43:19;100037.53;;;4.39;72.08
64876;BME280;51369;49.862;9.908;2024-01-27T01:45:45;100035.75;;;4.39;71.91
64876;BME280;51369;49.862;9.908;2024-01-27T01:48:10;100041.97;;;4.38;72.14
64876;BME280;51369;49.862;9.908;2024-01-27T01:50:36;100046.44;;;4.38;71.99
64876;BME280;51369;49.862;9.908;2024-01-27T01:53:01;100047.31;;;4.37;71.57
64876;BME280;51369;49.862;9.908;2024-01-27T01:55:27;100040.16;;;4.34;72.13
64876;BME280;51369;49.862;9.908;2024-01-27T01:57:52;100049.06;;;4.32;71.56
64876;BME280;51369;49.862;9.908;2024-01-27T02:00:18;100049.03;;;4.30;72.29
64876;BME280;51369;49.862;9.908;2024-01-27T02:02:44;100055.25;;;4.28;72.19
64876;BME280;51369;49.862;9.908;2024-01-27T02:05:12;100054.34;;;4.25;72.15
64876;BME280;51369;49.862;9.908;2024-01-27T02:07:38;100060.56;;;4.24;71.34
64876;BME280;51369;49.862;9.908;2024-01-27T02:10:05;100055.19;;;4.21;71.97
64876;BME280;51369;49.862;9.908;2024-01-27T02:12:31;100069.44;;;4.20;71.26
64876;BME280;51369;49.862;9.908;2024-01-27T02:14:56;100069.41;;;4.17;72.47
64876;BME280;51369;49.862;9.908;2024-01-27T02:17:22;100080.09;;;4.16;71.85
64876;BME280;51369;49.862;9.908;2024-01-27T02:19:47;100079.19;;;4.15;71.54
64876;BME280;51369;49.862;9.908;2024-01-27T02:22:12;100074.75;;;4.16;72.19
64876;BME280;51369;49.862;9.908;2024-01-27T02:24:38;100082.75;;;4.16;72.06
64876;BME280;51369;49.862;9.908;2024-01-27T02:27:03;100080.09;;;4.16;72.58
64876;BME280;51369;49.862;9.908;2024-01-27T02:29:29;100088.13;;;4.16;71.34
64876;BME280;51369;49.862;9.908;2024-01-27T02:31:55;100088.13;;;4.16;71.29
64876;BME280;51369;49.862;9.908;2024-01-27T02:34:20;100090.78;;;4.16;71.97
64876;BME280;51369;49.862;9.908;2024-01-27T02:36:46;100096.13;;;4.14;71.22
64876;BME280;51369;49.862;9.908;2024-01-27T02:39:11;100102.31;;;4.12;71.94
64876;BME280;51369;49.862;9.908;2024-01-27T02:41:37;100097.91;;;4.14;70.72
64876;BME280;51369;49.862;9.908;2024-01-27T02:44:06;100097.84;;;4.09;71.52
64876;BME280;51369;49.862;9.908;2024-01-27T02:46:32;100096.03;;;4.07;72.08
64876;BME280;51369;49.862;9.908;2024-01-27T02:48:57;100088.00;;;4.05;71.68
64876;BME280;51369;49.862;9.908;2024-01-27T02:51:22;100091.53;;;4.03;71.82
64876;BME280;51369;49.862;9.908;2024-01-27T02:53:48;100091.50;;;4.00;71.92
64876;BME280;51369;49.862;9.908;2024-01-27T02:56:16;100087.91;;;3.98;71.55
64876;BME280;51369;49.862;9.908;2024-01-27T02:58:42;100083.44;;;3.95;71.46
64876;BME280;51369;49.862;9.908;2024-01-27T03:01:07;100078.06;;;3.93;71.76
64876;BME280;51369;49.862;9.908;2024-01-27T03:03:33;100083.38;;;3.90;72.02
64876;BME280;51369;49.862;9.908;2024-01-27T03:05:58;100087.81;;;3.88;71.63
64876;BME280;51369;49.862;9.908;2024-01-27T03:08:24;100085.09;;;3.85;71.15
64876;BME280;51369;49.862;9.908;2024-01-27T03:10:49;100084.19;;;3.82;71.80
64876;BME280;51369;49.862;9.908;2024-01-27T03:13:15;100100.16;;;3.77;71.66
64876;BME280;51369;49.862;9.908;2024-01-27T03:15:40;100110.78;;;3.73;72.15
64876;BME280;51369;49.862;9.908;2024-01-27T03:18:07;100104.50;;;3.69;71.23
64876;BME280;51369;49.862;9.908;2024-01-27T03:20:33;100106.25;;;3.66;71.62
64876;BME280;51369;49.862;9.908;2024-01-27T03:22:58;100102.63;;;3.62;71.36
64876;BME280;51369;49.862;9.908;2024-01-27T03:25:24;100115.91;;;3.56;71.64
64876;BME280;51369;49.862;9.908;2024-01-27T03:27:51;100116.72;;;3.50;71.03
64876;BME280;51369;49.862;9.908;2024-01-27T03:30:17;100109.53;;;3.43;71.77
64876;BME280;51369;49.862;9.908;2024-01-27T03:32:42;100096.97;;;3.36;71.45
64876;BME280;51369;49.862;9.908;2024-01-27T03:35:07;100097.78;;;3.29;72.58
64876;BME280;51369;49.862;9.908;2024-01-27T03:37:33;100091.47;;;3.22;71.87
64876;BME280;51369;49.862;9.908;2024-01-27T03:40:00;100088.69;;;3.15;71.89
64876;BME280;51369;49.862;9.908;2024-01-27T03:42:25;100093.00;;;3.07;72.48
64876;BME280;51369;49.862;9.908;2024-01-27T03:44:50;100093.75;;;2.98;72.35
64876;BME280;51369;49.862;9.908;2024-01-27T03:47:16;100090.97;;;2.89;72.29
64876;BME280;51369;49.862;9.908;2024-01-27T03:49:42;100089.91;;;2.79;71.61
64876;BME280;51369;49.862;9.908;2024-01-27T03:52:07;100095.09;;;2.70;72.11
64876;BME280;51369;49.862;9.908;2024-01-27T03:54:32;100088.72;;;2.60;72.17
64876;BME280;51369;49.862;9.908;2024-01-27T03:56:58;100094.81;;;2.52;72.81
64876;BME280;51369;49.862;9.908;2024-01-27T03:59:23;100105.31;;;2.43;72.43
64876;BME280;51369;49.862;9.908;2024-01-27T04:01:48;100107.84;;;2.35;72.67
64876;BME280;51369;49.862;9.908;2024-01-27T04:04:14;100101.50;;;2.28;72.88
64876;BME280;51369;49.862;9.908;2024-01-27T04:06:40;100108.47;;;2.20;72.52
64876;BME280;51369;49.862;9.908;2024-01-27T04:09:05;100114.53;;;2.13;73.25
64876;BME280;51369;49.862;9.908;2024-01-27T04:11:34;100117.13;;;2.09;73.74
64876;BME280;51369;49.862;9.908;2024-01-27T04:14:00;100116.16;;;2.05;73.48
64876;BME280;51369;49.862;9.908;2024-01-27T04:16:27;100128.50;;;2.00;73.45
64876;BME280;51369;49.862;9.908;2024-01-27T04:18:52;100130.16;;;1.95;73.36
64876;BME280;51369;49.862;9.908;2024-01-27T04:21:17;100133.63;;;1.89;74.08
64876;BME280;51369;49.862;9.908;2024-01-27T04:23:43;100137.94;;;1.84;74.31
64876;BME280;51369;49.862;9.908;2024-01-27T04:26:08;100128.97;;;1.79;74.31
64876;BME280;51369;49.862;9.908;2024-01-27T04:28:35;100133.31;;;1.74;74.51
64876;BME280;51369;49.862;9.908;2024-01-27T04:31:01;100133.25;;;1.70;75.36
64876;BME280;51369;49.862;9.908;2024-01-27T04:33:26;100132.31;;;1.68;75.87
64876;BME280;51369;49.862;9.908;2024-01-27T04:35:51;100127.81;;;1.65;75.78
64876;BME280;51369;49.862;9.908;2024-01-27T04:38:17;100135.78;;;1.63;75.38
64876;BME280;51369;49.862;9.908;2024-01-27T04:40:42;100140.13;;;1.60;75.45
64876;BME280;51369;49.862;9.908;2024-01-27T04:43:07;100128.59;;;1.59;76.00
64876;BME280;51369;49.862;9.908;2024-01-27T04:45:33;100138.34;;;1.59;76.09
64876;BME280;51369;49.862;9.908;2024-01-27T04:47:58;100132.94;;;1.56;75.51
64876;BME280;51369;49.862;9.908;2024-01-27T04:50:26;100130.19;;;1.51;76.33
64876;BME280;51369;49.862;9.908;2024-01-27T04:52:52;100134.56;;;1.48;75.86
64876;BME280;51369;49.862;9.908;2024-01-27T04:55:18;100139.81;;;1.45;76.64
64876;BME280;51369;49.862;9.908;2024-01-27T04:57:44;100140.59;;;1.41;76.19
64876;BME280;51369;49.862;9.908;2024-01-27T05:00:10;100137.84;;;1.36;76.43
64876;BME280;51369;49.862;9.908;2024-01-27T05:02:41;100145.72;;;1.32;76.14
64876;BME280;51369;49.862;9.908;2024-01-27T05:05:08;100146.50;;;1.27;76.18
64876;BME280;51369;49.862;9.908;2024-01-27T05:07:34;100158.00;;;1.25;76.20
64876;BME280;51369;49.862;9.908;2024-01-27T05:09:59;100142.84;;;1.22;77.16
64876;BME280;51369;49.862;9.908;2024-01-27T05:12:25;100149.88;;;1.19;76.64
64876;BME280;51369;49.862;9.908;2024-01-27T05:14:51;100150.69;;;1.16;76.44
64876;BME280;51369;49.862;9.908;2024-01-27T05:17:16;100147.09;;;1.14;77.42
64876;BME280;51369;49.862;9.908;2024-01-27T05:19:41;100143.50;;;1.12;77.23
64876;BME280;51369;49.862;9.908;2024-01-27T05:22:07;100141.75;;;1.13;77.85
64876;BME280;51369;49.862;9.908;2024-01-27T05:24:32;100139.03;;;1.11;77.75
64876;BME280;51369;49.862;9.908;2024-01-27T05:26:58;100146.13;;;1.11;77.76
64876;BME280;51369;49.862;9.908;2024-01-27T05:29:24;100154.16;;;1.12;77.96
64876;BME280;51369;49.862;9.908;2024-01-27T05:31:49;100156.81;;;1.12;77.66
64876;BME280;51369;49.862;9.908;2024-01-27T05:34:14;100163.97;;;1.15;78.70
64876;BME280;51369;49.862;9.908;2024-01-27T05:36:40;100171.97;;;1.16;78.45
64876;BME280;51369;49.862;9.908;2024-01-27T05:39:05;100171.16;;;1.19;78.76
64876;BME280;51369;49.862;9.908;2024-01-27T05:41:32;100172.09;;;1.21;77.89
64876;BME280;51369;49.862;9.908;2024-01-27T05:43:57;100170.31;;;1.21;78.64
64876;BME280;51369;49.862;9.908;2024-01-27T05:46:24;100174.84;;;1.25;79.27
64876;BME280;51369;49.862;9.908;2024-01-27T05:48:50;100177.56;;;1.27;79.00
64876;BME280;51369;49.862;9.908;2024-01-27T05:51:26;100178.53;;;1.30;79.13
64876;BME280;51369;49.862;9.908;2024-01-27T05:53:52;100176.78;;;1.33;78.73
64876;BME280;51369;49.862;9.908;2024-01-27T05:56:17;100178.59;;;1.34;78.47
64876;BME280;51369;49.862;9.908;2024-01-27T05:58:47;100178.66;;;1.37;78.54
64876;BME280;51369;49.862;9.908;2024-01-27T06:01:12;100191.16;;;1.41;79.86
64876;BME280;51369;49.862;9.908;2024-01-27T06:03:37;100197.50;;;1.46;79.57
64876;BME280;51369;49.862;9.908;2024-01-27T06:06:03;100194.00;;;1.48;79.06
64876;BME280;51369;49.862;9.908;2024-01-27T06:08:29;100204.72;;;1.51;79.31
64876;BME280;51369;49.862;9.908;2024-01-27T06:10:54;100197.75;;;1.56;78.70
64876;BME280;51369;49.862;9.908;2024-01-27T06:13:19;100204.09;;;1.63;79.40
64876;BME280;51369;49.862;9.908;2024-01-27T06:15:44;100206.88;;;1.68;79.73
64876;BME280;51369;49.862;9.908;2024-01-27T06:18:10;100204.31;;;1.72;79.04
64876;BME280;51369;49.862;9.908;2024-01-27T06:20:35;100211.44;;;1.75;78.97
64876;BME280;51369;49.862;9.908;2024-01-27T06:23:01;100203.50;;;1.78;79.46
64876;BME280;51369;49.862;9.908;2024-01-27T06:25:26;100214.22;;;1.81;78.66
64876;BME280;51369;49.862;9.908;2024-01-27T06:27:52;100220.44;;;1.81;78.19
64876;BME280;51369;49.862;9.908;2024-01-27T06:30:18;100213.38;;;1.83;78.93
64876;BME280;51369;49.862;9.908;2024-01-27T06:32:50;100219.72;;;1.88;77.90
64876;BME280;51369;49.862;9.908;2024-01-27T06:35:15;100215.31;;;1.90;78.79
64876;BME280;51369;49.862;9.908;2024-01-27T06:37:41;100216.25;;;1.92;79.08
64876;BME280;51369;49.862;9.908;2024-01-27T06:40:06;100207.38;;;1.93;78.47
64876;BME280;51369;49.862;9.908;2024-01-27T06:42:34;100219.94;;;1.99;77.92
64876;BME280;51369;49.862;9.908;2024-01-27T06:44:59;100216.47;;;2.03;77.56
64876;BME280;51369;49.862;9.908;2024-01-27T06:47:24;100208.50;;;2.05;78.31
64876;BME280;51369;49.862;9.908;2024-01-27T06:49:50;100209.38;;;2.04;78.28
64876;BME280;51369;49.862;9.908;2024-01-27T06:52:15;100202.25;;;2.03;77.99
64876;BME280;51369;49.862;9.908;2024-01-27T06:54:40;100215.53;;;2.01;77.73
64876;BME280;51369;49.862;9.908;2024-01-27T06:57:29;100222.56;;;1.98;78.43
64876;BME280;51369;49.862;9.908;2024-01-27T06:59:54;100232.41;;;2.00;78.28
64876;BME280;51369;49.862;9.908;2024-01-27T07:02:24;100246.63;;;2.01;77.58
64876;BME280;51369;49.862;9.908;2024-01-27T07:04:51;100239.50;;;2.00;77.89
64876;BME280;51369;49.862;9.908;2024-01-27T07:07:17;100247.41;;;1.96;78.07
64876;BME280;51369;49.862;9.908;2024-01-27T07:09:42;100251.75;;;1.91;78.37
64876;BME280;51369;49.862;9.908;2024-01-27T07:12:07;100256.03;;;1.85;77.01
64876;BME280;51369;49.862;9.908;2024-01-27T07:14:34;100252.34;;;1.78;77.27
64876;BME280;51369;49.862;9.908;2024-01-27T07:16:59;100266.44;;;1.74;77.17
64876;BME280;51369;49.862;9.908;2024-01-27T07:19:25;100257.53;;;1.71;77.08
64876;BME280;51369;49.862;9.908;2024-01-27T07:21:51;100261.03;;;1.68;77.67
64876;BME280;51369;49.862;9.908;2024-01-27T07:24:16;100260.06;;;1.65;77.38
64876;BME280;51369;49.862;9.908;2024-01-27T07:26:42;100260.88;;;1.62;77.68
64876;BME280;51369;49.862;9.908;2024-01-27T07:29:07;100267.09;;;1.62;77.97
64876;BME280;51369;49.862;9.908;2024-01-27T07:31:33;100271.63;;;1.67;78.08
64876;BME280;51369;49.862;9.908;2024-01-27T07:33:58;100271.66;;;1.68;78.69
64876;BME280;51369;49.862;9.908;2024-01-27T07:36:24;100277.91;;;1.69;78.07
64876;BME280;51369;49.862;9.908;2024-01-27T07:38:51;100284.06;;;1.66;78.35
64876;BME280;51369;49.862;9.908;2024-01-27T07:41:16;100281.34;;;1.65;78.68
64876;BME280;51369;49.862;9.908;2024-01-27T07:43:42;100278.69;;;1.65;77.82
64876;BME280;51369;49.862;9.908;2024-01-27T07:46:08;100276.06;;;1.66;77.99
64876;BME280;51369;49.862;9.908;2024-01-27T07:48:33;100276.09;;;1.68;78.13
64876;BME280;51369;49.862;9.908;2024-01-27T07:50:58;100270.81;;;1.69;79.15
64876;BME280;51369;49.862;9.908;2024-01-27T07:53:24;100267.28;;;1.70;78.20
64876;BME280;51369;49.862;9.908;2024-01-27T07:55:50;100269.91;;;1.69;78.16
64876;BME280;51369;49.862;9.908;2024-01-27T07:58:16;100271.66;;;1.68;78.53
64876;BME280;51369;49.862;9.908;2024-01-27T08:00:41;100269.84;;;1.66;78.01
64876;BME280;51369;49.862;9.908;2024-01-27T08:03:07;100276.03;;;1.65;77.89
64876;BME280;51369;49.862;9.908;2024-01-27T08:05:32;100268.94;;;1.65;78.25
64876;BME280;51369;49.862;9.908;2024-01-27T08:07:58;100278.78;;;1.69;78.42
64876;BME280;51369;49.862;9.908;2024-01-27T08:10:23;100278.88;;;1.72;78.23
64876;BME280;51369;49.862;9.908;2024-01-27T08:12:48;100281.56;;;1.75;79.56
64876;BME280;51369;49.862;9.908;2024-01-27T08:15:14;100286.13;;;1.81;78.74
64876;BME280;51369;49.862;9.908;2024-01-27T08:17:39;100277.34;;;1.85;79.63
64876;BME280;51369;49.862;9.908;2024-01-27T08:20:05;100284.56;;;1.90;78.78
64876;BME280;51369;49.862;9.908;2024-01-27T08:22:30;100278.47;;;1.96;79.65
64876;BME280;51369;49.862;9.908;2024-01-27T08:24:56;100273.28;;;2.02;79.78
64876;BME280;51369;49.862;9.908;2024-01-27T08:27:21;100275.22;;;2.09;79.11
64876;BME280;51369;49.862;9.908;2024-01-27T08:29:48;100278.03;;;2.15;79.87
64876;BME280;51369;49.862;9.908;2024-01-27T08:32:13;100281.69;;;2.20;78.87
64876;BME280;51369;49.862;9.908;2024-01-27T08:34:38;100293.41;;;2.28;79.82
64876;BME280;51369;49.862;9.908;2024-01-27T08:37:22;100288.19;;;2.35;79.70
64876;BME280;51369;49.862;9.908;2024-01-27T08:39:48;100291.88;;;2.41;79.55
64876;BME280;51369;49.862;9.908;2024-01-27T08:42:13;100295.53;;;2.45;79.95
64876;BME280;51369;49.862;9.908;2024-01-27T08:44:38;100296.47;;;2.48;78.98
64876;BME280;51369;49.862;9.908;2024-01-27T08:47:05;100296.59;;;2.54;78.44
64876;BME280;51369;49.862;9.908;2024-01-27T08:49:30;100302.00;;;2.57;79.05
64876;BME280;51369;49.862;9.908;2024-01-27T08:51:55;100307.41;;;2.62;79.53
64876;BME280;51369;49.862;9.908;2024-01-27T08:54:21;100310.19;;;2.67;79.40
64876;BME280;51369;49.862;9.908;2024-01-27T08:56:47;100310.28;;;2.71;80.01
64876;BME280;51369;49.862;9.908;2024-01-27T08:59:12;100314.81;;;2.77;78.54
64876;BME280;51369;49.862;9.908;2024-01-27T09:01:37;100315.81;;;2.82;79.12
64876;BME280;51369;49.862;9.908;2024-01-27T09:04:03;100323.97;;;2.89;79.06
64876;BME280;51369;49.862;9.908;2024-01-27T09:06:28;100327.63;;;2.94;78.55
64876;BME280;51369;49.862;9.908;2024-01-27T09:08:53;100321.50;;;3.00;79.08
64876;BME280;51369;49.862;9.908;2024-01-27T09:11:19;100320.69;;;3.04;79.17
64876;BME280;51369;49.862;9.908;2024-01-27T09:13:44;100314.53;;;3.08;79.43
64876;BME280;51369;49.862;9.908;2024-01-27T09:16:10;100319.06;;;3.12;78.77
64876;BME280;51369;49.862;9.908;2024-01-27T09:18:39;100311.13;;;3.17;78.35
64876;BME280;51369;49.862;9.908;2024-01-27T09:21:04;100305.81;;;3.18;79.10
64876;BME280;51369;49.862;9.908;2024-01-27T09:23:29;100307.66;;;3.22;78.36
64876;BME280;51369;49.862;9.908;2024-01-27T09:25:55;100302.41;;;3.27;78.41
64876;BME280;51369;49.862;9.908;2024-01-27T09:28:20;100304.25;;;3.31;78.68
64876;BME280;51369;49.862;9.908;2024-01-27T09:30:45;100301.69;;;3.37;77.84
64876;BME280;51369;49.862;9.908;2024-01-27T09:33:11;100293.75;;;3.42;78.30
64876;BME280;51369;49.862;9.908;2024-01-27T09:35:36;100309.88;;;3.49;78.72
64876;BME280;51369;49.862;9.908;2024-01-27T09:38:02;100302.88;;;3.56;78.13
64876;BME280;51369;49.862;9.908;2024-01-27T09:40:28;100307.38;;;3.60;78.20
64876;BME280;51369;49.862;9.908;2024-01-27T09:42:57;100310.16;;;3.66;77.88
64876;BME280;51369;49.862;9.908;2024-01-27T09:45:23;100302.22;;;3.72;77.38
64876;BME280;51369;49.862;9.908;2024-01-27T09:47:49;100301.41;;;3.76;77.54
64876;BME280;51369;49.862;9.908;2024-01-27T09:50:17;100303.28;;;3.82;77.25
64876;BME280;51369;49.862;9.908;2024-01-27T09:52:43;100306.91;;;3.87;77.93
64876;BME280;51369;49.862;9.908;2024-01-27T09:55:09;100308.78;;;3.92;77.88
64876;BME280;51369;49.862;9.908;2024-01-27T09:57:36;100313.34;;;4.00;76.69
64876;BME280;51369;49.862;9.908;2024-01-27T10:00:03;100309.88;;;4.07;76.78
64876;BME280;51369;49.862;9.908;2024-01-27T10:02:30;100321.56;;;4.15;76.69
64876;BME280;51369;49.862;9.908;2024-01-27T10:04:56;100326.13;;;4.22;76.60
64876;BME280;51369;49.862;9.908;2024-01-27T10:07:22;100342.25;;;4.28;76.12
64876;BME280;51369;49.862;9.908;2024-01-27T10:09:49;100339.69;;;4.36;76.82
64876;BME280;51369;49.862;9.908;2024-01-27T10:12:16;100338.91;;;4.43;75.70
64876;BME280;51369;49.862;9.908;2024-01-27T10:14:42;100335.44;;;4.50;75.53
64876;BME280;51369;49.862;9.908;2024-01-27T10:17:11;100333.72;;;4.56;75.60
64876;BME280;51369;49.862;9.908;2024-01-27T10:19:36;100324.84;;;4.61;75.69
64876;BME280;51369;49.862;9.908;2024-01-27T10:22:02;100330.28;;;4.67;75.11
64876;BME280;51369;49.862;9.908;2024-01-27T10:24:29;100321.41;;;4.71;75.48
64876;BME280;51369;49.862;9.908;2024-01-27T10:27:04;100325.03;;;4.76;75.83
64876;BME280;51369;49.862;9.908;2024-01-27T10:29:32;100318.91;;;4.84;75.74
64876;BME280;51369;49.862;9.908;2024-01-27T10:32:10;100318.09;;;4.93;75.96
64876;BME280;51369;49.862;9.908;2024-01-27T10:34:36;100305.69;;;5.01;75.17
64876;BME280;51369;49.862;9.908;2024-01-27T10:37:01;100312.03;;;5.09;75.22
64876;BME280;51369;49.862;9.908;2024-01-27T10:39:26;100303.19;;;5.21;75.33
64876;BME280;51369;49.862;9.908;2024-01-27T10:41:52;100300.63;;;5.33;75.06
64876;BME280;51369;49.862;9.908;2024-01-27T10:44:18;100302.50;;;5.43;74.35
64876;BME280;51369;49.862;9.908;2024-01-27T10:46:46;100302.59;;;5.54;74.58
64876;BME280;51369;49.862;9.908;2024-01-27T10:49:16;100306.22;;;5.62;73.95
64876;BME280;51369;49.862;9.908;2024-01-27T10:52:02;100302.72;;;5.71;73.58
64876;BME280;51369;49.862;9.908;2024-01-27T10:54:33;100303.69;;;5.82;74.24
64876;BME280;51369;49.862;9.908;2024-01-27T10:56:58;100303.81;;;5.91;73.81
64876;BME280;51369;49.862;9.908;2024-01-27T10:59:26;100305.66;;;6.01;73.71
64876;BME280;51369;49.862;9.908;2024-01-27T11:01:54;100303.91;;;6.09;73.38
64876;BME280;51369;49.862;9.908;2024-01-27T11:04:20;100314.69;;;6.18;72.82
64876;BME280;51369;49.862;9.908;2024-01-27T11:06:47;100306.72;;;6.29;73.60
64876;BME280;51369;49.862;9.908;2024-01-27T11:09:14;100304.97;;;6.37;72.53
64876;BME280;51369;49.862;9.908;2024-01-27T11:11:43;100314.84;;;6.47;72.35
64876;BME280;51369;49.862;9.908;2024-01-27T11:14:12;100310.44;;;6.60;71.98
64876;BME280;51369;49.862;9.908;2024-01-27T11:16:38;100304.22;;;6.72;72.53
64876;BME280;51369;49.862;9.908;2024-01-27T11:19:10;100298.91;;;6.82;71.55
64876;BME280;51369;49.862;9.908;2024-01-27T11:21:36;100284.56;;;6.96;71.44
64876;BME280;51369;49.862;9.908;2024-01-27T11:24:12;100281.00;;;7.07;71.01
64876;BME280;51369;49.862;9.908;2024-01-27T11:26:38;100283.72;;;7.21;70.26
64876;BME280;51369;49.862;9.908;2024-01-27T11:29:06;100275.66;;;7.29;69.86
64876;BME280;51369;49.862;9.908;2024-01-27T11:31:33;100272.09;;;7.40;70.03
64876;BME280;51369;49.862;9.908;2024-01-27T11:33:58;100279.25;;;7.50;70.52
64876;BME280;51369;49.862;9.908;2024-01-27T11:36:24;100281.94;;;7.60;69.82
64876;BME280;51369;49.862;9.908;2024-01-27T11:38:50;100286.44;;;7.68;69.07
64876;BME280;51369;49.862;9.908;2024-01-27T11:41:29;100268.50;;;7.75;68.90
64876;BME280;51369;49.862;9.908;2024-01-27T11:43:58;100272.06;;;7.81;68.91
64876;BME280;51369;49.862;9.908;2024-01-27T11:46:27;100278.34;;;7.85;68.66
64876;BME280;51369;49.862;9.908;2024-01-27T11:48:53;100272.06;;;7.86;68.89
64876;BME280;51369;49.862;9.908;2024-01-27T11:51:18;100268.47;;;7.87;67.74
64876;BME280;51369;49.862;9.908;2024-01-27T11:53:45;100264.91;;;7.87;67.26
64876;BME280;51369;49.862;9.908;2024-01-27T11:56:10;100255.03;;;7.84;67.78
64876;BME280;51369;49.862;9.908;2024-01-27T11:58:36;100258.63;;;7.81;67.16
64876;BME280;51369;49.862;9.908;2024-01-27T12:01:01;100259.53;;;7.74;66.13
64876;BME280;51369;49.862;9.908;2024-01-27T12:03:27;100250.59;;;7.68;66.63
64876;BME280;51369;49.862;9.908;2024-01-27T12:05:54;100257.75;;;7.64;66.44
64876;BME280;51369;49.862;9.908;2024-01-27T12:08:20;100263.13;;;7.61;66.51
64876;BME280;51369;49.862;9.908;2024-01-27T12:10:45;100251.47;;;7.59;66.44
64876;BME280;51369;49.862;9.908;2024-01-27T12:13:11;100261.34;;;7.59;66.92
64876;BME280;51369;49.862;9.908;2024-01-27T12:15:36;100262.25;;;7.58;66.93
64876;BME280;51369;49.862;9.908;2024-01-27T12:18:04;100264.03;;;7.54;65.93
64876;BME280;51369;49.862;9.908;2024-01-27T12:20:30;100265.81;;;7.54;65.92
64876;BME280;51369;49.862;9.908;2024-01-27T12:23:05;100277.47;;;7.53;65.85
64876;BME280;51369;49.862;9.908;2024-01-27T12:25:31;100272.09;;;7.53;65.73
64876;BME280;51369;49.862;9.908;2024-01-27T12:27:56;100282.84;;;7.53;65.84
64876;BME280;51369;49.862;9.908;2024-01-27T12:30:27;100278.38;;;7.50;64.94
64876;BME280;51369;49.862;9.908;2024-01-27T12:32:52;100273.88;;;7.50;65.49
64876;BME280;51369;49.862;9.908;2024-01-27T12:35:18;100269.41;;;7.53;65.28
64876;BME280;51369;49.862;9.908;2024-01-27T12:37:43;100274.78;;;7.54;65.66
64876;BME280;51369;49.862;9.908;2024-01-27T12:40:19;100267.63;;;7.56;66.46
64876;BME280;51369;49.862;9.908;2024-01-27T12:42:45;100276.56;;;7.61;66.64
64876;BME280;51369;49.862;9.908;2024-01-27T12:45:11;100268.50;;;7.63;65.69
64876;BME280;51369;49.862;9.908;2024-01-27T12:47:36;100283.75;;;7.65;65.65
64876;BME280;51369;49.862;9.908;2024-01-27T12:50:03;100278.38;;;7.67;65.64
64876;BME280;51369;49.862;9.908;2024-01-27T12:52:28;100270.28;;;7.68;65.73
64876;BME280;51369;49.862;9.908;2024-01-27T12:54:54;100265.81;;;7.72;65.30